Time;durP1;ratioP1;P1;durP2;ratioP2;P2;SDS_P1;SDS_P2;PMS_P1;PMS_P2;Temp;Humidity;BMP_temperature;BMP_pressure;BME280_temperature;BME280_humidity;BME280_pressure;Samples;Min_cycle;Max_cycle;Signal;HPM_P1;HPM_P2
2022/09/11 00:02:34;;;;;;;46.93;24.87;;;;;14.60;101278.00;;;;13154018;22;20543;-71
2022/09/11 00:07:36;;;;;;;46.07;25.87;;;;;14.80;101294.00;;;;13129141;22;20163;-71
2022/09/11 00:12:37;;;;;;;46.33;25.00;;;;;15.00;101302.00;;;;13125423;22;20290;-71
2022/09/11 00:17:38;;;;;;;47.53;25.33;;;;;15.10;101306.00;;;;13081760;22;20197;-71
2022/09/11 00:22:40;;;;;;;40.20;24.43;;;;;15.20;101300.00;;;;13183225;22;20170;-71
2022/09/11 00:27:41;;;;;;;45.23;25.57;;;;;15.10;101299.00;;;;13131970;22;20564;-71
2022/09/11 00:32:42;;;;;;;40.17;25.50;;;;;14.90;101293.00;;;;13128506;22;20159;-71
2022/09/11 00:37:47;;;;;;;37.60;23.27;;;;;14.80;101291.00;;;;13128826;22;20190;-71
2022/09/11 00:42:52;;;;;;;39.77;23.80;;;;;14.70;101286.00;;;;13107561;22;20170;-71
2022/09/11 00:47:58;;;;;;;40.43;24.27;;;;;14.50;101278.00;;;;13104594;22;20249;-71
2022/09/11 00:53:03;;;;;;;37.07;23.40;;;;;14.50;101272.00;;;;13108254;22;20171;-71
2022/09/11 00:58:09;;;;;;;46.40;25.67;;;;;14.30;101273.00;;;;13107208;22;20194;-71
2022/09/11 01:03:13;;;;;;;41.23;24.10;;;;;14.30;101273.00;;;;13108115;22;20621;-71
2022/09/11 01:08:14;;;;;;;38.57;22.90;;;;;14.20;101273.00;;;;13105334;22;20158;-71
2022/09/11 01:13:32;;;;;;;39.50;24.40;;;;;14.10;101271.00;;;;13106894;22;20540;-71
2022/09/11 01:19:07;;;;;;;39.60;23.87;;;;;13.90;101269.00;;;;13128847;22;20315;-71
2022/09/11 01:24:31;;;;;;;41.33;22.60;;;;;13.80;101267.00;;;;13125156;22;20532;-71
2022/09/11 01:29:45;;;;;;;41.80;24.17;;;;;13.80;101242.00;;;;13155278;22;20163;-71
2022/09/11 01:35:00;;;;;;;36.57;22.80;;;;;13.70;101209.00;;;;13080466;22;20239;-71
2022/09/11 01:40:09;;;;;;;42.77;25.17;;;;;13.60;101188.00;;;;13154808;22;20663;-71
2022/09/11 01:45:15;;;;;;;38.60;24.33;;;;;13.60;101195.00;;;;13128960;22;20163;-71
2022/09/11 01:50:19;;;;;;;38.07;23.23;;;;;13.50;101207.00;;;;13182534;22;20171;-71
2022/09/11 01:55:30;;;;;;;43.33;23.80;;;;;13.50;101224.00;;;;13129322;22;20186;-71
2022/09/11 02:00:35;;;;;;;48.50;27.13;;;;;13.40;101236.00;;;;13109072;22;20175;-71
2022/09/11 02:05:42;;;;;;;48.33;27.70;;;;;13.50;101239.00;;;;13109255;22;20163;-71
2022/09/11 02:10:51;;;;;;;54.07;28.83;;;;;13.50;101258.00;;;;13109504;22;20175;-71
2022/09/11 02:15:56;;;;;;;53.50;30.30;;;;;13.60;101272.00;;;;13105209;22;20716;-71
2022/09/11 02:20:58;;;;;;;55.40;29.77;;;;;13.60;101274.00;;;;13109718;22;20170;-71
2022/09/11 02:26:00;;;;;;;56.70;29.57;;;;;13.70;101279.00;;;;13108280;22;20198;-74
2022/09/11 02:31:02;;;;;;;51.00;29.07;;;;;13.60;101277.00;;;;13156654;22;20155;-71
2022/09/11 02:36:23;;;;;;;52.00;29.90;;;;;13.50;101279.00;;;;13083360;22;20194;-71
2022/09/11 02:42:06;;;;;;;50.53;27.83;;;;;13.50;101275.00;;;;13058023;22;20173;-71
2022/09/11 02:47:28;;;;;;;44.70;26.40;;;;;13.40;101281.00;;;;13105860;22;20167;-71
2022/09/11 02:52:29;;;;;;;53.30;29.57;;;;;13.30;101292.00;;;;13083322;22;20182;-74
2022/09/11 02:57:36;;;;;;;49.10;28.30;;;;;13.30;101297.00;;;;13104973;22;20190;-71
2022/09/11 03:02:40;;;;;;;53.87;26.80;;;;;13.20;101301.00;;;;13109893;22;20167;-71
2022/09/11 03:07:42;;;;;;;45.90;27.17;;;;;13.20;101302.00;;;;13133215;22;20224;-71
2022/09/11 03:12:44;;;;;;;57.47;30.07;;;;;13.10;101295.00;;;;13135930;22;20651;-72
2022/09/11 03:17:45;;;;;;;54.07;30.13;;;;;13.10;101299.00;;;;13081317;22;20194;-71
2022/09/11 03:22:48;;;;;;;61.43;31.90;;;;;13.20;101309.00;;;;13157313;22;20568;-71
2022/09/11 03:27:49;;;;;;;53.97;30.67;;;;;13.20;101310.00;;;;13154194;22;20358;-71
2022/09/11 03:32:52;;;;;;;54.87;29.77;;;;;13.30;101301.00;;;;13156168;22;20260;-71
2022/09/11 03:37:54;;;;;;;51.67;30.03;;;;;13.30;101305.00;;;;13131337;22;20649;-71
2022/09/11 03:42:55;;;;;;;64.40;33.17;;;;;13.20;101306.00;;;;13130216;22;20255;-71
2022/09/11 03:47:57;;;;;;;55.97;30.13;;;;;13.20;101306.00;;;;13156994;22;20193;-71
2022/09/11 03:52:58;;;;;;;60.03;32.47;;;;;13.20;101301.00;;;;13083521;22;20274;-71
2022/09/11 03:58:01;;;;;;;59.60;31.03;;;;;13.10;101293.00;;;;13156387;22;20209;-71
2022/09/11 04:03:03;;;;;;;52.67;27.93;;;;;13.10;101294.00;;;;13130169;22;20155;-71
2022/09/11 04:08:12;;;;;;;50.93;29.60;;;;;13.00;101296.00;;;;13085142;22;20163;-71
2022/09/11 04:13:19;;;;;;;57.70;32.20;;;;;13.00;101292.00;;;;13155975;22;20187;-71
2022/09/11 04:18:21;;;;;;;59.37;31.27;;;;;13.00;101296.00;;;;13129988;22;20159;-71
2022/09/11 04:23:23;;;;;;;68.83;34.10;;;;;13.00;101306.00;;;;13155552;22;20170;-71
2022/09/11 04:28:30;;;;;;;62.40;33.00;;;;;13.00;101306.00;;;;13109226;22;20302;-71
2022/09/11 04:33:31;;;;;;;63.27;32.90;;;;;13.00;101304.00;;;;13082273;22;20166;-72
2022/09/11 04:38:33;;;;;;;60.40;31.37;;;;;13.00;101310.00;;;;13082578;22;20637;-71
2022/09/11 04:43:37;;;;;;;54.33;29.17;;;;;12.90;101308.00;;;;13156391;22;20848;-71
2022/09/11 04:48:47;;;;;;;59.80;32.00;;;;;12.80;101309.00;;;;13109109;22;20162;-71
2022/09/11 04:53:56;;;;;;;70.83;32.13;;;;;12.80;101319.00;;;;13156116;22;20198;-71
2022/09/11 04:59:15;;;;;;;62.33;31.33;;;;;12.90;101326.00;;;;13106712;22;20596;-71
2022/09/11 05:04:21;;;;;;;70.97;33.17;;;;;13.10;101328.00;;;;13058896;22;20202;-71
2022/09/11 05:09:28;;;;;;;92.37;38.17;;;;;13.30;101325.00;;;;13155706;22;20170;-71
2022/09/11 05:14:31;;;;;;;107.00;40.27;;;;;13.40;101326.00;;;;13080642;22;20198;-71
2022/09/11 05:19:33;;;;;;;164.43;44.47;;;;;13.60;101346.00;;;;13129906;22;20238;-71
2022/09/11 05:24:34;;;;;;;159.37;44.20;;;;;13.70;101343.00;;;;13156251;22;20166;-71
2022/09/11 05:29:37;;;;;;;144.50;42.37;;;;;13.90;101360.00;;;;13107099;22;20613;-72
2022/09/11 05:34:44;;;;;;;143.60;44.83;;;;;13.90;101362.00;;;;13109396;22;20202;-72
2022/09/11 05:39:48;;;;;;;165.73;48.20;;;;;14.10;101374.00;;;;13109594;22;20170;-72
2022/09/11 05:44:51;;;;;;;193.33;49.00;;;;;14.30;101375.00;;;;13131972;22;20208;-72
2022/09/11 05:49:52;;;;;;;219.60;48.53;;;;;14.40;101379.00;;;;13131566;22;20250;-72
2022/09/11 05:54:55;;;;;;;164.17;46.83;;;;;14.50;101389.00;;;;13058481;22;20286;-72
2022/09/11 05:59:56;;;;;;;111.63;43.63;;;;;14.70;101396.00;;;;13108006;22;20245;-72
2022/09/11 06:04:58;;;;;;;140.17;45.60;;;;;14.90;101406.00;;;;13132485;22;20174;-72
2022/09/11 06:09:59;;;;;;;128.23;43.37;;;;;14.90;101395.00;;;;13109898;22;20782;-72
2022/09/11 06:15:06;;;;;;;129.30;44.67;;;;;15.00;101409.00;;;;13108710;22;20202;-72
2022/09/11 06:20:11;;;;;;;107.50;41.10;;;;;15.10;101414.00;;;;13131565;22;20167;-72
2022/09/11 06:25:16;;;;;;;112.10;43.03;;;;;15.30;101409.00;;;;13107170;22;20183;-72
2022/09/11 06:30:18;;;;;;;118.05;45.35;;;;;15.50;101405.00;;;;13083005;22;20178;-72
2022/09/11 06:35:20;;;;;;;136.13;48.58;;;;;15.60;101405.00;;;;13109186;22;20209;-71
2022/09/11 06:40:22;;;;;;;131.02;47.22;;;;;15.80;101405.00;;;;13108179;22;20175;-72
2022/09/11 06:45:24;;;;;;;143.20;51.58;;;;;15.90;101408.00;;;;13153212;22;20613;-72
2022/09/11 06:50:26;;;;;;;130.13;51.25;;;;;16.20;101404.00;;;;13081998;22;20517;-72
2022/09/11 06:55:46;;;;;;;166.48;47.78;;;;;16.30;101412.00;;;;13150837;22;20190;-72
2022/09/11 07:00:50;;;;;;;131.48;46.03;;;;;16.50;101411.00;;;;13081562;22;20228;-72
2022/09/11 07:05:52;;;;;;;126.63;48.55;;;;;16.70;101413.00;;;;13057607;22;20171;-72
2022/09/11 07:10:54;;;;;;;124.28;50.10;;;;;16.80;101413.00;;;;13103754;22;20410;-72
2022/09/11 07:16:03;;;;;;;170.20;53.80;;;;;17.00;101412.00;;;;13107064;22;20198;-72
2022/09/11 07:21:13;;;;;;;134.75;53.70;;;;;17.20;101415.00;;;;13106285;22;20186;-72
2022/09/11 07:26:17;;;;;;;132.88;56.08;;;;;17.20;101408.00;;;;13128347;22;20195;-72
2022/09/11 07:31:24;;;;;;;137.65;54.92;;;;;17.40;101407.00;;;;13080644;22;20669;-72
2022/09/11 07:36:30;;;;;;;123.55;53.30;;;;;17.70;101412.00;;;;13104539;22;20199;-72
2022/09/11 07:41:33;;;;;;;107.45;51.45;;;;;18.50;101403.00;;;;13152217;22;20186;-72
2022/09/11 07:46:40;;;;;;;104.05;50.38;;;;;19.00;101394.00;;;;13080188;22;20175;-72
2022/09/11 07:51:43;;;;;;;89.65;45.47;;;;;18.90;101402.00;;;;13079910;22;20506;-72
2022/09/11 07:56:48;;;;;;;102.13;49.53;;;;;18.80;101405.00;;;;13080623;22;20191;-72
2022/09/11 08:01:50;;;;;;;93.95;46.70;;;;;18.80;101429.00;;;;13156453;22;20502;-72
2022/09/11 08:06:51;;;;;;;106.65;51.15;;;;;18.80;101430.00;;;;13157630;22;20506;-72
2022/09/11 08:12:01;;;;;;;90.93;49.50;;;;;19.10;101428.00;;;;13150879;22;20820;-72
2022/09/11 08:17:05;;;;;;;102.57;52.05;;;;;19.10;101430.00;;;;13080066;22;20255;-72
2022/09/11 08:22:07;;;;;;;97.78;51.17;;;;;19.30;101437.00;;;;13137165;22;20167;-71
2022/09/11 08:27:15;;;;;;;98.25;51.28;;;;;19.40;101441.00;;;;13102610;22;20159;-71
2022/09/11 08:32:17;;;;;;;95.20;49.85;;;;;19.60;101435.00;;;;13106365;22;20867;-72
2022/09/11 08:37:18;;;;;;;96.28;51.97;;;;;19.80;101448.00;;;;13152918;22;20880;-72
2022/09/11 08:42:22;;;;;;;83.50;47.35;;;;;20.00;101447.00;;;;13126533;22;20191;-72
2022/09/11 08:47:29;;;;;;;78.88;47.08;;;;;20.00;101445.00;;;;13078011;22;20175;-72
2022/09/11 08:52:35;;;;;;;67.03;43.80;;;;;20.60;101451.00;;;;13079010;22;20171;-72
2022/09/11 08:58:06;;;;;;;65.35;43.28;;;;;20.70;101450.00;;;;13125597;22;20179;-72
2022/09/11 09:03:52;;;;;;;62.20;41.97;;;;;21.00;101468.00;;;;13096495;22;20175;-72
2022/09/11 09:09:04;;;;;;;49.10;37.17;;;;;21.20;101469.00;;;;13098893;22;20165;-73
2022/09/11 09:14:30;;;;;;;57.38;41.50;;;;;21.20;101465.00;;;;13152872;22;20681;-72
2022/09/11 09:19:41;;;;;;;47.60;36.20;;;;;21.30;101468.00;;;;13149713;22;20167;-72
2022/09/11 09:24:53;;;;;;;52.42;38.97;;;;;21.50;101473.00;;;;13102105;22;20434;-72
2022/09/11 09:30:00;;;;;;;48.65;35.75;;;;;21.50;101470.00;;;;13120606;22;20159;-72
2022/09/11 09:35:11;;;;;;;37.85;30.70;;;;;22.90;101464.00;;;;13075245;22;20260;-72
2022/09/11 09:40:16;;;;;;;34.47;30.67;;;;;22.90;101478.00;;;;13151836;22;20212;-72
2022/09/11 09:46:00;;;;;;;31.80;28.23;;;;;23.90;101481.00;;;;13149858;22;20175;-72
2022/09/11 09:51:02;;;;;;;24.67;22.15;;;;;24.60;101488.00;;;;13007845;22;20178;-72
2022/09/11 09:56:05;;;;;;;22.63;20.15;;;;;25.10;101489.00;;;;13145463;22;20186;-72
2022/09/11 10:01:42;;;;;;;20.95;18.73;;;;;25.70;101494.00;;;;13127357;22;20663;-73
2022/09/11 10:06:46;;;;;;;20.50;18.50;;;;;26.00;101494.00;;;;13100627;22;20171;-73
2022/09/11 10:12:01;;;;;;;18.70;16.52;;;;;26.20;101501.00;;;;13095946;22;20167;-73
2022/09/11 10:17:03;;;;;;;16.20;14.63;;;;;26.30;101499.00;;;;13140740;22;20193;-73
2022/09/11 10:22:24;;;;;;;15.32;13.93;;;;;25.80;101501.00;;;;13179465;22;20823;-72
2022/09/11 10:27:27;;;;;;;13.43;12.13;;;;;26.10;101496.00;;;;13099265;22;20275;-72
2022/09/11 10:32:41;;;;;;;16.20;14.38;;;;;26.80;101494.00;;;;13103007;22;20167;-73
2022/09/11 10:37:43;;;;;;;17.95;16.15;;;;;27.20;101495.00;;;;13125483;22;20202;-73
2022/09/11 10:42:51;;;;;;;15.68;14.07;;;;;27.30;101498.00;;;;13069928;22;20244;-73
2022/09/11 10:47:52;;;;;;;12.30;11.02;;;;;27.90;101501.00;;;;13175844;22;20549;-73
2022/09/11 10:52:53;;;;;;;13.65;12.25;;;;;27.60;101497.00;;;;13073918;22;20269;-73
2022/09/11 10:58:05;;;;;;;12.55;11.23;;;;;28.20;101490.00;;;;13098941;22;20199;-73
2022/09/11 11:03:11;;;;;;;12.90;11.43;;;;;26.30;101488.00;;;;13124080;22;20813;-73
2022/09/11 11:08:21;;;;;;;12.05;10.88;;;;;26.20;101480.00;;;;13072266;22;20186;-73
2022/09/11 11:13:22;;;;;;;14.82;10.98;;;;;26.80;101470.00;;;;13071444;22;20277;-73
2022/09/11 11:18:40;;;;;;;11.10;10.10;;;;;26.20;101486.00;;;;13149233;22;20186;-73
2022/09/11 11:24:07;;;;;;;10.55;9.40;;;;;24.70;101476.00;;;;13122626;22;20159;-73
2022/09/11 11:29:25;;;;;;;12.07;9.75;;;;;23.80;101476.00;;;;13034751;22;20224;-73
2022/09/11 11:34:36;;;;;;;10.63;9.52;;;;;23.30;101469.00;;;;13075284;22;20273;-73
2022/09/11 11:39:52;;;;;;;10.32;9.32;;;;;23.00;101448.00;;;;13148694;22;20170;-73
2022/09/11 11:44:59;;;;;;;13.00;8.70;;;;;24.80;101458.00;;;;13076462;22;20194;-73
2022/09/11 11:50:06;;;;;;;9.63;8.38;;;;;25.40;101457.00;;;;13129341;22;20163;-73
2022/09/11 11:55:26;;;;;;;9.02;8.13;;;;;25.60;101448.00;;;;13149833;22;20661;-73
2022/09/11 12:00:32;;;;;;;8.48;6.10;;;;;27.20;101447.00;;;;13120219;22;20167;-73
2022/09/11 12:05:33;;;;;;;7.63;6.45;;;;;27.80;101448.00;;;;13127754;22;20181;-73
2022/09/11 12:10:37;;;;;;;6.93;6.00;;;;;27.50;101439.00;;;;13100973;22;20472;-73
2022/09/11 12:15:38;;;;;;;6.30;4.85;;;;;27.90;101436.00;;;;13175116;22;20258;-73
2022/09/11 12:20:44;;;;;;;7.25;4.53;;;;;27.90;101433.00;;;;13074378;22;20170;-74
2022/09/11 12:25:49;;;;;;;6.15;4.90;;;;;28.40;101444.00;;;;13145285;22;20167;-74
2022/09/11 12:30:57;;;;;;;7.68;4.82;;;;;28.70;101430.00;;;;13100754;22;20171;-73
2022/09/11 12:35:59;;;;;;;7.93;3.60;;;;;28.60;101420.00;;;;13070842;22;20203;-74
2022/09/11 12:41:06;;;;;;;4.00;2.92;;;;;28.70;101424.00;;;;13127550;22;20174;-74
2022/09/11 12:46:20;;;;;;;4.30;3.90;;;;;28.90;101423.00;;;;13123123;22;20761;-74
2022/09/11 12:51:25;;;;;;;3.20;2.90;;;;;28.70;101423.00;;;;13119785;22;20159;-74
2022/09/11 12:56:31;;;;;;;4.00;3.22;;;;;28.60;101415.00;;;;13098006;22;20314;-74
2022/09/11 13:01:41;;;;;;;5.45;4.45;;;;;28.40;101406.00;;;;13147583;22;20158;-74
2022/09/11 13:06:46;;;;;;;4.70;4.30;;;;;27.80;101392.00;;;;13128596;22;20737;-74
2022/09/11 13:11:50;;;;;;;5.43;3.50;;;;;27.30;101390.00;;;;13098234;22;20175;-74
2022/09/11 13:17:01;;;;;;;4.50;4.10;;;;;28.10;101380.00;;;;13101051;22;20190;-74
2022/09/11 13:22:26;;;;;;;4.10;3.30;;;;;29.00;101373.00;;;;13180226;22;20167;-74
2022/09/11 13:27:36;;;;;;;3.25;2.95;;;;;29.50;101366.00;;;;13128086;22;20194;-74
2022/09/11 13:32:37;;;;;;;4.75;2.80;;;;;30.20;101364.00;;;;13076996;22;20175;-74
2022/09/11 13:38:09;;;;;;;3.78;3.03;;;;;31.00;101359.00;;;;13101863;22;20198;-73
2022/09/11 13:43:19;;;;;;;3.70;3.40;;;;;31.70;101357.00;;;;13121664;22;20843;-74
2022/09/11 13:48:22;;;;;;;4.03;3.08;;;;;32.10;101342.00;;;;13146309;22;20190;-74
2022/09/11 13:53:25;;;;;;;3.92;2.30;;;;;32.30;101347.00;;;;13123183;22;20164;-74
2022/09/11 13:58:34;;;;;;;3.15;2.85;;;;;32.80;101323.00;;;;13129720;22;20195;-74
2022/09/11 14:03:37;;;;;;;5.70;2.72;;;;;33.30;101322.00;;;;13150085;22;20244;-74
2022/09/11 14:08:47;;;;;;;3.13;2.25;;;;;33.50;101312.00;;;;13180571;22;20181;-74
2022/09/11 14:13:59;;;;;;;2.90;1.92;;;;;32.80;101306.00;;;;13100644;22;20236;-74
2022/09/11 14:19:15;;;;;;;3.90;2.00;;;;;30.00;101311.00;;;;13098407;22;20160;-74
2022/09/11 14:24:36;;;;;;;5.57;2.05;;;;;26.60;101308.00;;;;13101150;22;20873;-74
2022/09/11 14:29:37;;;;;;;2.17;1.95;;;;;26.50;101297.00;;;;13149010;22;20159;-73
2022/09/11 14:34:38;;;;;;;2.10;1.73;;;;;25.60;101301.00;;;;13149666;22;20194;-73
2022/09/11 14:39:46;;;;;;;1.70;1.60;;;;;25.40;101294.00;;;;13102252;22;20199;-73
2022/09/11 14:44:48;;;;;;;2.83;2.60;;;;;25.30;101296.00;;;;13122359;22;20170;-73
2022/09/11 14:49:54;;;;;;;2.15;1.70;;;;;24.80;101292.00;;;;13076923;22;20190;-74
2022/09/11 14:54:55;;;;;;;1.77;1.67;;;;;26.20;101289.00;;;;13146446;22;20852;-73
2022/09/11 14:59:58;;;;;;;2.00;1.77;;;;;25.60;101293.00;;;;13149558;22;20158;-73
2022/09/11 15:04:59;;;;;;;2.08;1.88;;;;;25.30;101291.00;;;;13126231;22;20182;-73
2022/09/11 15:10:01;;;;;;;1.60;1.50;;;;;24.90;101281.00;;;;13124190;22;20931;-73
2022/09/11 15:15:04;;;;;;;3.25;2.00;;;;;24.50;101277.00;;;;13051387;22;20270;-73
2022/09/11 15:20:08;;;;;;;3.15;1.63;;;;;24.20;101281.00;;;;13175548;22;20208;-73
2022/09/11 15:25:10;;;;;;;2.08;1.70;;;;;24.10;101284.00;;;;13152067;22;20974;-73
2022/09/11 15:30:11;;;;;;;3.78;2.10;;;;;23.90;101276.00;;;;13151571;22;20165;-73
2022/09/11 15:35:14;;;;;;;4.05;2.25;;;;;23.60;101272.00;;;;13103329;22;20656;-73
2022/09/11 15:40:16;;;;;;;2.78;2.55;;;;;23.30;101267.00;;;;13102121;22;20171;-73
2022/09/11 15:45:17;;;;;;;4.03;1.92;;;;;23.00;101260.00;;;;13127761;22;20206;-72
2022/09/11 15:50:23;;;;;;;4.30;1.88;;;;;22.90;101250.00;;;;13126546;22;20284;-72
2022/09/11 15:55:28;;;;;;;4.18;1.70;;;;;22.80;101246.00;;;;13117798;22;20183;-73
2022/09/11 16:00:30;;;;;;;4.10;1.50;;;;;22.70;101262.00;;;;13144246;22;20163;-72
2022/09/11 16:05:37;;;;;;;2.10;1.90;;;;;22.60;101251.00;;;;13091212;22;20170;-72
2022/09/11 16:10:38;;;;;;;2.15;1.55;;;;;22.50;101251.00;;;;13072917;22;20518;-73
2022/09/11 16:15:40;;;;;;;1.77;1.60;;;;;22.30;101248.00;;;;13120848;22;20649;-73
2022/09/11 16:20:42;;;;;;;2.83;1.85;;;;;22.20;101253.00;;;;13118893;22;20162;-73
2022/09/11 16:25:43;;;;;;;1.65;1.55;;;;;22.10;101245.00;;;;13142696;22;20299;-73
2022/09/11 16:30:45;;;;;;;3.63;2.03;;;;;22.00;101249.00;;;;13096991;22;20177;-72
2022/09/11 16:36:06;;;;;;;2.92;2.05;;;;;22.00;101248.00;;;;13071760;22;20187;-73
2022/09/11 16:41:14;;;;;;;4.00;1.90;;;;;21.90;101237.00;;;;13143410;22;20158;-73
2022/09/11 16:46:21;;;;;;;2.45;1.90;;;;;21.80;101239.00;;;;13120464;22;20159;-73
2022/09/11 16:51:22;;;;;;;2.20;2.05;;;;;21.60;101230.00;;;;13146320;22;20324;-72
2022/09/11 16:56:25;;;;;;;2.08;1.98;;;;;21.50;101238.00;;;;13098325;22;20831;-72
2022/09/11 17:01:27;;;;;;;3.33;2.58;;;;;21.40;101234.00;;;;13098706;22;20175;-72
2022/09/11 17:06:28;;;;;;;2.50;2.30;;;;;21.30;101234.00;;;;13068899;22;20731;-72
2022/09/11 17:11:31;;;;;;;3.15;2.28;;;;;21.20;101230.00;;;;13140550;22;20174;-72
2022/09/11 17:16:34;;;;;;;3.28;2.60;;;;;21.00;101226.00;;;;13065570;22;20828;-72
2022/09/11 17:21:36;;;;;;;3.28;2.67;;;;;20.90;101224.00;;;;13119814;22;20177;-72
2022/09/11 17:26:37;;;;;;;2.90;2.70;;;;;20.70;101230.00;;;;13143975;22;20188;-72
2022/09/11 17:31:39;;;;;;;3.45;3.17;;;;;20.60;101232.00;;;;13070725;22;20177;-72
2022/09/11 17:36:42;;;;;;;4.57;2.95;;;;;20.40;101224.00;;;;13140989;22;20245;-72
2022/09/11 17:41:43;;;;;;;6.22;3.60;;;;;20.20;101213.00;;;;13144221;22;20162;-72
2022/09/11 17:46:44;;;;;;;4.10;3.40;;;;;20.00;101213.00;;;;13120274;22;20253;-71
2022/09/11 17:51:45;;;;;;;3.95;3.30;;;;;19.70;101214.00;;;;13141878;22;20198;-71
2022/09/11 17:56:46;;;;;;;5.45;3.58;;;;;19.50;101218.00;;;;13124846;22;20194;-72
2022/09/11 18:01:48;;;;;;;4.20;2.92;;;;;19.30;101209.00;;;;13120106;22;20261;-71
2022/09/11 18:06:50;;;;;;;6.10;3.00;;;;;19.10;101205.00;;;;13095326;22;20171;-71
2022/09/11 18:11:53;;;;;;;5.78;3.30;;;;;18.90;101207.00;;;;13098009;22;20766;-71
2022/09/11 18:16:54;;;;;;;3.65;3.10;;;;;18.70;101210.00;;;;13072804;22;20202;-71
2022/09/11 18:21:56;;;;;;;3.65;2.97;;;;;18.60;101207.00;;;;13048220;22;20851;-72
2022/09/11 18:26:58;;;;;;;3.50;3.20;;;;;18.50;101218.00;;;;13126072;22;20837;-71
2022/09/11 18:32:02;;;;;;;4.10;2.85;;;;;18.40;101214.00;;;;13146055;22;20244;-71
2022/09/11 18:37:03;;;;;;;4.07;3.08;;;;;18.30;101222.00;;;;13100939;22;20199;-71
2022/09/11 18:42:06;;;;;;;4.03;2.50;;;;;18.30;101228.00;;;;13101122;22;20171;-71
2022/09/11 18:47:07;;;;;;;4.82;2.80;;;;;18.20;101227.00;;;;13119826;22;20236;-71
2022/09/11 18:52:09;;;;;;;3.30;3.00;;;;;18.00;101237.00;;;;13148178;22;20566;-71
2022/09/11 18:57:10;;;;;;;5.47;3.40;;;;;17.80;101230.00;;;;13076621;22;20199;-71
2022/09/11 19:02:12;;;;;;;4.28;3.78;;;;;17.70;101236.00;;;;13149119;22;20800;-71
2022/09/11 19:07:14;;;;;;;6.30;3.83;;;;;17.50;101237.00;;;;13121030;22;20163;-71
2022/09/11 19:12:15;;;;;;;4.72;3.13;;;;;17.40;101241.00;;;;13123051;22;20193;-71
2022/09/11 19:17:17;;;;;;;5.28;3.28;;;;;17.20;101248.00;;;;13100684;22;20190;-71
2022/09/11 19:22:21;;;;;;;3.53;3.20;;;;;17.00;101236.00;;;;13149084;22;20170;-71
2022/09/11 19:27:25;;;;;;;6.15;3.60;;;;;16.90;101241.00;;;;13147906;22;20167;-71
2022/09/11 19:32:26;;;;;;;3.85;3.47;;;;;16.80;101242.00;;;;13148750;22;20586;-71
2022/09/11 19:37:28;;;;;;;4.53;3.97;;;;;16.70;101242.00;;;;13146711;22;20198;-71
2022/09/11 19:42:29;;;;;;;4.60;4.15;;;;;16.60;101243.00;;;;13100202;22;20178;-71
2022/09/11 19:47:31;;;;;;;4.10;3.70;;;;;16.40;101239.00;;;;13097428;22;20175;-71
2022/09/11 19:52:32;;;;;;;4.13;3.72;;;;;16.30;101237.00;;;;13125865;22;20512;-71
2022/09/11 19:57:33;;;;;;;4.20;3.80;;;;;16.20;101239.00;;;;13148684;22;20187;-71
2022/09/11 20:02:35;;;;;;;4.18;3.78;;;;;16.10;101236.00;;;;13151068;22;20161;-71
2022/09/11 20:07:36;;;;;;;4.38;3.90;;;;;16.10;101240.00;;;;13097543;22;20797;-71
2022/09/11 20:12:38;;;;;;;7.78;4.20;;;;;16.00;101241.00;;;;13075796;22;20782;-71
2022/09/11 20:17:43;;;;;;;4.32;3.92;;;;;16.00;101240.00;;;;13075626;22;20202;-71
2022/09/11 20:22:44;;;;;;;4.28;3.88;;;;;15.90;101235.00;;;;13100477;22;20174;-71
2022/09/11 20:27:46;;;;;;;4.05;3.72;;;;;15.90;101237.00;;;;13127629;22;20159;-71
2022/09/11 20:32:48;;;;;;;5.03;4.13;;;;;15.80;101239.00;;;;13125750;22;20159;-71
2022/09/11 20:37:50;;;;;;;5.10;4.60;;;;;15.70;101238.00;;;;13151554;22;20182;-71
2022/09/11 20:42:51;;;;;;;6.32;4.50;;;;;15.70;101231.00;;;;13152635;22;20211;-71
2022/09/11 20:47:52;;;;;;;5.10;4.60;;;;;15.60;101230.00;;;;13152507;22;20241;-71
2022/09/11 20:52:53;;;;;;;4.47;4.07;;;;;15.60;101232.00;;;;13126060;22;20175;-71
2022/09/11 20:57:54;;;;;;;6.53;4.28;;;;;15.60;101230.00;;;;13124314;22;20186;-71
2022/09/11 21:02:56;;;;;;;4.73;4.33;;;;;15.60;101221.00;;;;13077327;22;20179;-71
2022/09/11 21:07:57;;;;;;;5.30;4.80;;;;;15.50;101233.00;;;;13152237;22;20158;-71
2022/09/11 21:12:58;;;;;;;6.40;5.03;;;;;15.40;101221.00;;;;13078258;22;20186;-71
2022/09/11 21:17:59;;;;;;;5.15;4.32;;;;;15.40;101222.00;;;;13074346;22;20274;-71
2022/09/11 21:23:00;;;;;;;5.45;4.95;;;;;15.40;101221.00;;;;13101751;22;20673;-71
2022/09/11 21:28:01;;;;;;;5.68;5.07;;;;;15.40;101221.00;;;;13152952;22;20166;-71
2022/09/11 21:33:03;;;;;;;7.32;5.75;;;;;15.40;101220.00;;;;13101997;22;20177;-71
2022/09/11 21:38:04;;;;;;;6.60;5.50;;;;;15.30;101207.00;;;;13130646;22;20273;-71
2022/09/11 21:43:05;;;;;;;6.68;4.95;;;;;15.20;101205.00;;;;13126635;22;20175;-71
2022/09/11 21:48:08;;;;;;;5.87;4.67;;;;;15.10;101202.00;;;;13076861;22;20166;-71
2022/09/11 21:53:10;;;;;;;6.40;5.22;;;;;14.90;101215.00;;;;13148129;22;20888;-71
2022/09/11 21:58:18;;;;;;;6.47;4.82;;;;;14.80;101226.00;;;;13125962;22;20214;-71
2022/09/11 22:03:20;;;;;;;7.88;5.47;;;;;14.70;101223.00;;;;13077509;22;20743;-71
2022/09/11 22:08:21;;;;;;;6.57;5.50;;;;;14.70;101220.00;;;;13152850;22;20165;-71
2022/09/11 22:13:22;;;;;;;8.20;6.03;;;;;14.70;101227.00;;;;13152444;22;20186;-71
2022/09/11 22:18:23;;;;;;;7.90;5.80;;;;;14.70;101213.00;;;;13150530;22;20691;-71
2022/09/11 22:23:25;;;;;;;7.10;6.50;;;;;14.70;101202.00;;;;13106068;22;20174;-71
2022/09/11 22:28:27;;;;;;;7.30;6.07;;;;;14.70;101202.00;;;;13105956;22;20798;-71
2022/09/11 22:33:28;;;;;;;8.50;6.13;;;;;14.60;101191.00;;;;13182787;22;20159;-71
2022/09/11 22:38:29;;;;;;;6.20;5.60;;;;;14.50;101195.00;;;;13079943;22;20198;-71
2022/09/11 22:43:31;;;;;;;6.67;6.03;;;;;14.40;101190.00;;;;13055020;22;20199;-71
2022/09/11 22:48:33;;;;;;;7.47;5.80;;;;;14.30;101185.00;;;;13103852;22;20175;-71
2022/09/11 22:53:35;;;;;;;9.33;6.53;;;;;14.20;101179.00;;;;13128595;22;20215;-71
2022/09/11 22:58:37;;;;;;;7.03;6.33;;;;;14.10;101182.00;;;;13128134;22;20213;-71
2022/09/11 23:03:39;;;;;;;7.40;6.70;;;;;14.10;101180.00;;;;13106391;22;20762;-71
2022/09/11 23:08:40;;;;;;;9.37;6.80;;;;;14.00;101178.00;;;;13080889;22;20185;-71
2022/09/11 23:13:42;;;;;;;9.47;6.57;;;;;13.90;101175.00;;;;13154095;22;20182;-71
2022/09/11 23:18:44;;;;;;;7.43;6.73;;;;;13.90;101167.00;;;;13107062;22;20191;-71
2022/09/11 23:23:53;;;;;;;10.80;7.33;;;;;13.80;101163.00;;;;13106935;22;20198;-71
2022/09/11 23:28:55;;;;;;;7.80;7.10;;;;;13.70;101164.00;;;;13182654;22;20169;-71
2022/09/11 23:33:59;;;;;;;10.77;7.20;;;;;13.70;101152.00;;;;13155422;22;20163;-71
2022/09/11 23:39:01;;;;;;;8.80;6.60;;;;;13.60;101151.00;;;;13105177;22;20194;-71
2022/09/11 23:44:04;;;;;;;8.30;7.37;;;;;13.60;101154.00;;;;13183361;22;20163;-71
2022/09/11 23:49:06;;;;;;;8.20;7.40;;;;;13.50;101156.00;;;;13106698;22;20178;-71
2022/09/11 23:54:07;;;;;;;14.27;8.13;;;;;13.50;101154.00;;;;13106730;22;20250;-71
2022/09/11 23:59:08;;;;;;;8.70;7.60;;;;;13.40;101147.00;;;;13154534;22;20190;-70
